Youngstown Warren Regional Airport
KYNG : now visible

Airfield :











YOU CAN JOIN US ON...

 
LOGIN :

Register | Disclaimer

   EN    FR    IT 

 









Legend :    VFR   Marginal VFR   IFR   Intensive IFR   Very Intensive IFR
Visi :
Ceiling :
>= 8 km
>= 3000ft
5 to 8 km
1000 to 3000 ft
1500m to 5 km
500 to 1000 ft
800 to 1500m
200 to 500 ft
< 800m
< 200 ft
Symbols :   Thunderstorms  Fog  Heavy snow  Heavy precipitations  Wind > 20 kt






- Airport Elevation : 1192 ft
- IATA code : YNG


KYNG - Youngstown Warren Regional

CURRENT METAR :
  • 081951Z 21010G19KT 10SM OVC060 09/02 A3007 RMK AO2 SLP192 T00890017

EXPIRED METARs :
  • 081851Z 20009KT 10SM SCT055 BKN250 09/02 A3007 RMK AO2 SLP193 T00890017
  • 081751Z 19008KT 10SM FEW040 OVC250 07/00 A3010 RMK AO2 SLP201 T00720000 10072 21017 58027

TAF KYNG
Valid from the 08 at 18:00 until the 09 at 18:00 UTC


081747Z 0818/0918 19011G19KT P6SM SCT035 OVC150
FM090300 18010KT P6SM SCT035 OVC050
FM091300 16008KT P6SM VCSH SCT015 OVC035
FM091700 17010KT 4SM -SHRA BR SCT015 OVC035



MET'MAP, your aeronautical weather chart ! - Copyright ORBIFLY December 2007 - Disclaimer

ORBIFLY MET'MAP TEAM :

Programming & Development : Alexandra Zaïnal
Concept & original design : Baudouin d'Aumeries
Assistance for programming : Marc-Olivier Méhu
Technical & hardware support : Manuel Goepfert

Contact : metmap@orbifly.com




SOURCES & CREDITS :

   NOAA       Earth
Advisory